sensor_id;sensor_type;location;lat;lon;timestamp;P1;durP1;ratioP1;P2;durP2;ratioP2
76125;SDS011;65174;48.138;21.002;2023-07-20T00:00:07;3.27;;;2.07;;
76125;SDS011;65174;48.138;21.002;2023-07-20T00:03:19;4.13;;;2.30;;
76125;SDS011;65174;48.138;21.002;2023-07-20T00:06:25;3.42;;;1.75;;
76125;SDS011;65174;48.138;21.002;2023-07-20T00:09:29;2.58;;;2.05;;
76125;SDS011;65174;48.138;21.002;2023-07-20T00:12:31;4.97;;;2.63;;
76125;SDS011;65174;48.138;21.002;2023-07-20T00:15:33;3.80;;;2.30;;
76125;SDS011;65174;48.138;21.002;2023-07-20T00:18:37;4.80;;;2.08;;
76125;SDS011;65174;48.138;21.002;2023-07-20T00:21:39;3.20;;;2.30;;
76125;SDS011;65174;48.138;21.002;2023-07-20T00:24:42;3.40;;;2.40;;
76125;SDS011;65174;48.138;21.002;2023-07-20T00:31:11;3.80;;;2.37;;
76125;SDS011;65174;48.138;21.002;2023-07-20T00:34:13;4.72;;;2.40;;
76125;SDS011;65174;48.138;21.002;2023-07-20T00:37:15;3.80;;;2.45;;
76125;SDS011;65174;48.138;21.002;2023-07-20T00:40:17;3.85;;;2.60;;
76125;SDS011;65174;48.138;21.002;2023-07-20T00:43:23;3.83;;;2.85;;
76125;SDS011;65174;48.138;21.002;2023-07-20T00:46:26;3.27;;;2.37;;
76125;SDS011;65174;48.138;21.002;2023-07-20T00:49:29;4.72;;;2.58;;
76125;SDS011;65174;48.138;21.002;2023-07-20T00:52:31;3.97;;;2.13;;
76125;SDS011;65174;48.138;21.002;2023-07-20T00:55:34;5.32;;;2.17;;
76125;SDS011;65174;48.138;21.002;2023-07-20T00:58:37;2.67;;;2.03;;
76125;SDS011;65174;48.138;21.002;2023-07-20T01:05:28;3.50;;;2.20;;
76125;SDS011;65174;48.138;21.002;2023-07-20T01:09:09;3.80;;;2.40;;
76125;SDS011;65174;48.138;21.002;2023-07-20T01:15:56;4.30;;;2.30;;
76125;SDS011;65174;48.138;21.002;2023-07-20T01:19:01;3.83;;;2.47;;
76125;SDS011;65174;48.138;21.002;2023-07-20T01:22:14;3.25;;;2.30;;
76125;SDS011;65174;48.138;21.002;2023-07-20T01:32:03;3.65;;;2.65;;
76125;SDS011;65174;48.138;21.002;2023-07-20T01:35:10;3.20;;;2.80;;
76125;SDS011;65174;48.138;21.002;2023-07-20T01:38:16;4.60;;;3.03;;
76125;SDS011;65174;48.138;21.002;2023-07-20T01:41:19;4.90;;;2.67;;
76125;SDS011;65174;48.138;21.002;2023-07-20T01:44:22;4.28;;;3.10;;
76125;SDS011;65174;48.138;21.002;2023-07-20T01:47:27;4.65;;;3.35;;
76125;SDS011;65174;48.138;21.002;2023-07-20T01:50:31;5.10;;;3.33;;
76125;SDS011;65174;48.138;21.002;2023-07-20T01:53:34;5.15;;;3.13;;
76125;SDS011;65174;48.138;21.002;2023-07-20T01:56:36;4.50;;;3.28;;
76125;SDS011;65174;48.138;21.002;2023-07-20T01:59:39;5.22;;;3.08;;
76125;SDS011;65174;48.138;21.002;2023-07-20T02:02:41;5.38;;;3.42;;
76125;SDS011;65174;48.138;21.002;2023-07-20T02:05:44;4.07;;;2.70;;
76125;SDS011;65174;48.138;21.002;2023-07-20T02:08:47;4.95;;;3.10;;
76125;SDS011;65174;48.138;21.002;2023-07-20T02:11:49;4.30;;;2.95;;
76125;SDS011;65174;48.138;21.002;2023-07-20T02:14:55;5.88;;;3.38;;
76125;SDS011;65174;48.138;21.002;2023-07-20T02:17:57;3.65;;;2.80;;
76125;SDS011;65174;48.138;21.002;2023-07-20T02:20:59;3.50;;;2.60;;
76125;SDS011;65174;48.138;21.002;2023-07-20T02:24:01;3.22;;;2.47;;
76125;SDS011;65174;48.138;21.002;2023-07-20T02:27:20;3.40;;;2.28;;
76125;SDS011;65174;48.138;21.002;2023-07-20T02:30:24;4.03;;;2.90;;
76125;SDS011;65174;48.138;21.002;2023-07-20T02:33:26;4.15;;;3.25;;
76125;SDS011;65174;48.138;21.002;2023-07-20T02:36:28;4.70;;;3.10;;
76125;SDS011;65174;48.138;21.002;2023-07-20T02:39:30;4.18;;;2.42;;
76125;SDS011;65174;48.138;21.002;2023-07-20T02:42:32;5.18;;;2.50;;
76125;SDS011;65174;48.138;21.002;2023-07-20T02:45:34;4.47;;;3.05;;
76125;SDS011;65174;48.138;21.002;2023-07-20T02:48:37;3.45;;;2.38;;
76125;SDS011;65174;48.138;21.002;2023-07-20T02:51:39;3.10;;;2.47;;
76125;SDS011;65174;48.138;21.002;2023-07-20T02:54:44;2.65;;;2.40;;
76125;SDS011;65174;48.138;21.002;2023-07-20T02:57:46;3.15;;;2.30;;
76125;SDS011;65174;48.138;21.002;2023-07-20T03:00:48;4.35;;;2.78;;
76125;SDS011;65174;48.138;21.002;2023-07-20T03:03:51;3.47;;;2.50;;
76125;SDS011;65174;48.138;21.002;2023-07-20T03:06:53;3.40;;;2.63;;
76125;SDS011;65174;48.138;21.002;2023-07-20T03:09:56;3.10;;;2.22;;
76125;SDS011;65174;48.138;21.002;2023-07-20T03:13:39;4.93;;;3.10;;
76125;SDS011;65174;48.138;21.002;2023-07-20T03:16:41;6.05;;;3.00;;
76125;SDS011;65174;48.138;21.002;2023-07-20T03:19:44;5.15;;;3.25;;
76125;SDS011;65174;48.138;21.002;2023-07-20T03:22:46;3.73;;;2.50;;
76125;SDS011;65174;48.138;21.002;2023-07-20T03:25:49;4.35;;;2.75;;
76125;SDS011;65174;48.138;21.002;2023-07-20T03:28:51;3.38;;;2.78;;
76125;SDS011;65174;48.138;21.002;2023-07-20T03:31:56;4.70;;;3.33;;
76125;SDS011;65174;48.138;21.002;2023-07-20T03:34:58;4.25;;;3.08;;
76125;SDS011;65174;48.138;21.002;2023-07-20T03:38:00;4.33;;;2.83;;
76125;SDS011;65174;48.138;21.002;2023-07-20T03:41:02;6.15;;;2.95;;
76125;SDS011;65174;48.138;21.002;2023-07-20T03:44:04;3.35;;;2.60;;
76125;SDS011;65174;48.138;21.002;2023-07-20T03:47:06;5.40;;;3.38;;
76125;SDS011;65174;48.138;21.002;2023-07-20T03:50:12;5.18;;;2.95;;
76125;SDS011;65174;48.138;21.002;2023-07-20T03:53:14;4.67;;;3.13;;
76125;SDS011;65174;48.138;21.002;2023-07-20T03:56:17;5.97;;;3.40;;
76125;SDS011;65174;48.138;21.002;2023-07-20T03:59:19;4.05;;;2.90;;
76125;SDS011;65174;48.138;21.002;2023-07-20T04:02:22;4.95;;;3.05;;
76125;SDS011;65174;48.138;21.002;2023-07-20T04:05:27;4.22;;;2.50;;
76125;SDS011;65174;48.138;21.002;2023-07-20T04:08:29;5.23;;;2.70;;
76125;SDS011;65174;48.138;21.002;2023-07-20T04:11:31;3.90;;;2.80;;
76125;SDS011;65174;48.138;21.002;2023-07-20T04:14:33;4.78;;;2.75;;
76125;SDS011;65174;48.138;21.002;2023-07-20T04:17:35;3.38;;;2.45;;
76125;SDS011;65174;48.138;21.002;2023-07-20T04:20:41;4.88;;;3.47;;
76125;SDS011;65174;48.138;21.002;2023-07-20T04:25:17;2.80;;;1.87;;
76125;SDS011;65174;48.138;21.002;2023-07-20T04:29:52;3.50;;;2.65;;
76125;SDS011;65174;48.138;21.002;2023-07-20T04:34:28;3.42;;;2.53;;
76125;SDS011;65174;48.138;21.002;2023-07-20T04:38:15;4.10;;;2.97;;
76125;SDS011;65174;48.138;21.002;2023-07-20T04:42:52;3.63;;;2.58;;
76125;SDS011;65174;48.138;21.002;2023-07-20T04:45:54;4.10;;;2.60;;
76125;SDS011;65174;48.138;21.002;2023-07-20T04:48:57;4.53;;;3.35;;
76125;SDS011;65174;48.138;21.002;2023-07-20T04:52:05;10.63;;;3.40;;
76125;SDS011;65174;48.138;21.002;2023-07-20T04:55:09;5.18;;;3.00;;
76125;SDS011;65174;48.138;21.002;2023-07-20T04:58:12;5.63;;;3.30;;
76125;SDS011;65174;48.138;21.002;2023-07-20T05:01:14;5.10;;;3.03;;
76125;SDS011;65174;48.138;21.002;2023-07-20T05:05:50;4.13;;;2.95;;
76125;SDS011;65174;48.138;21.002;2023-07-20T05:08:52;5.47;;;2.90;;
76125;SDS011;65174;48.138;21.002;2023-07-20T05:11:54;5.70;;;3.30;;
76125;SDS011;65174;48.138;21.002;2023-07-20T05:15:03;4.88;;;3.30;;
76125;SDS011;65174;48.138;21.002;2023-07-20T05:18:06;4.03;;;2.93;;
76125;SDS011;65174;48.138;21.002;2023-07-20T05:21:08;3.38;;;2.55;;
76125;SDS011;65174;48.138;21.002;2023-07-20T05:24:11;4.30;;;2.83;;
76125;SDS011;65174;48.138;21.002;2023-07-20T05:27:16;3.85;;;2.65;;
76125;SDS011;65174;48.138;21.002;2023-07-20T05:31:49;3.47;;;2.30;;
76125;SDS011;65174;48.138;21.002;2023-07-20T05:36:25;3.73;;;2.97;;
76125;SDS011;65174;48.138;21.002;2023-07-20T05:39:27;3.42;;;2.72;;
76125;SDS011;65174;48.138;21.002;2023-07-20T05:43:10;3.70;;;2.88;;
76125;SDS011;65174;48.138;21.002;2023-07-20T05:46:13;4.50;;;2.65;;
76125;SDS011;65174;48.138;21.002;2023-07-20T05:49:15;4.07;;;2.78;;
76125;SDS011;65174;48.138;21.002;2023-07-20T05:53:51;4.20;;;2.70;;
76125;SDS011;65174;48.138;21.002;2023-07-20T05:56:53;3.03;;;2.13;;
76125;SDS011;65174;48.138;21.002;2023-07-20T06:01:29;4.90;;;2.70;;
76125;SDS011;65174;48.138;21.002;2023-07-20T06:04:31;3.92;;;2.58;;
76125;SDS011;65174;48.138;21.002;2023-07-20T06:08:23;3.70;;;2.42;;
76125;SDS011;65174;48.138;21.002;2023-07-20T06:12:58;3.60;;;2.60;;
76125;SDS011;65174;48.138;21.002;2023-07-20T06:17:40;3.88;;;2.65;;
76125;SDS011;65174;48.138;21.002;2023-07-20T06:20:42;2.88;;;2.05;;
76125;SDS011;65174;48.138;21.002;2023-07-20T06:23:46;3.45;;;2.55;;
76125;SDS011;65174;48.138;21.002;2023-07-20T06:26:48;3.95;;;2.50;;
76125;SDS011;65174;48.138;21.002;2023-07-20T06:31:03;3.37;;;2.60;;
76125;SDS011;65174;48.138;21.002;2023-07-20T06:34:08;4.60;;;2.60;;
76125;SDS011;65174;48.138;21.002;2023-07-20T06:37:10;6.20;;;2.85;;
76125;SDS011;65174;48.138;21.002;2023-07-20T06:40:13;4.22;;;2.17;;
76125;SDS011;65174;48.138;21.002;2023-07-20T06:43:18;3.00;;;2.58;;
76125;SDS011;65174;48.138;21.002;2023-07-20T06:46:23;2.97;;;2.37;;
76125;SDS011;65174;48.138;21.002;2023-07-20T06:49:27;3.15;;;2.35;;
76125;SDS011;65174;48.138;21.002;2023-07-20T06:52:30;3.80;;;2.45;;
76125;SDS011;65174;48.138;21.002;2023-07-20T06:55:32;5.20;;;2.90;;
76125;SDS011;65174;48.138;21.002;2023-07-20T06:58:42;2.97;;;2.20;;
76125;SDS011;65174;48.138;21.002;2023-07-20T07:01:44;3.03;;;2.33;;
76125;SDS011;65174;48.138;21.002;2023-07-20T12:14:35;3.15;;;1.63;;
76125;SDS011;65174;48.138;21.002;2023-07-20T12:17:41;1.73;;;1.63;;
76125;SDS011;65174;48.138;21.002;2023-07-20T12:20:44;2.00;;;1.67;;
76125;SDS011;65174;48.138;21.002;2023-07-20T12:23:46;2.80;;;1.52;;
76125;SDS011;65174;48.138;21.002;2023-07-20T12:26:48;1.48;;;1.35;;
76125;SDS011;65174;48.138;21.002;2023-07-20T12:29:51;2.20;;;1.77;;
76125;SDS011;65174;48.138;21.002;2023-07-20T12:32:53;2.17;;;1.60;;
76125;SDS011;65174;48.138;21.002;2023-07-20T12:35:55;3.53;;;2.37;;
76125;SDS011;65174;48.138;21.002;2023-07-20T12:39:00;2.95;;;1.85;;
76125;SDS011;65174;48.138;21.002;2023-07-20T12:42:03;1.60;;;1.25;;
76125;SDS011;65174;48.138;21.002;2023-07-20T12:45:05;1.98;;;1.88;;
76125;SDS011;65174;48.138;21.002;2023-07-20T12:48:09;2.97;;;1.87;;
76125;SDS011;65174;48.138;21.002;2023-07-20T12:51:11;3.07;;;1.87;;
76125;SDS011;65174;48.138;21.002;2023-07-20T12:54:13;2.53;;;1.83;;
76125;SDS011;65174;48.138;21.002;2023-07-20T12:57:15;2.20;;;1.77;;
76125;SDS011;65174;48.138;21.002;2023-07-20T13:00:17;2.42;;;1.30;;
76125;SDS011;65174;48.138;21.002;2023-07-20T13:03:20;3.28;;;1.35;;
76125;SDS011;65174;48.138;21.002;2023-07-20T13:06:25;2.87;;;1.57;;
76125;SDS011;65174;48.138;21.002;2023-07-20T13:09:29;2.35;;;1.80;;
76125;SDS011;65174;48.138;21.002;2023-07-20T13:12:32;5.63;;;1.80;;
76125;SDS011;65174;48.138;21.002;2023-07-20T13:15:43;2.28;;;1.83;;
76125;SDS011;65174;48.138;21.002;2023-07-20T13:18:46;2.40;;;1.90;;
76125;SDS011;65174;48.138;21.002;2023-07-20T13:21:48;1.73;;;1.30;;
76125;SDS011;65174;48.138;21.002;2023-07-20T13:24:50;1.70;;;1.30;;
76125;SDS011;65174;48.138;21.002;2023-07-20T13:27:52;3.25;;;2.20;;
76125;SDS011;65174;48.138;21.002;2023-07-20T13:30:54;2.92;;;1.95;;
76125;SDS011;65174;48.138;21.002;2023-07-20T13:33:56;2.93;;;1.80;;
76125;SDS011;65174;48.138;21.002;2023-07-20T13:37:02;2.43;;;1.80;;
76125;SDS011;65174;48.138;21.002;2023-07-20T13:40:04;1.70;;;1.60;;
76125;SDS011;65174;48.138;21.002;2023-07-20T13:43:08;2.05;;;1.48;;
76125;SDS011;65174;48.138;21.002;2023-07-20T13:46:10;2.03;;;1.48;;
76125;SDS011;65174;48.138;21.002;2023-07-20T13:49:19;2.70;;;1.97;;
76125;SDS011;65174;48.138;21.002;2023-07-20T13:52:24;1.60;;;1.27;;
76125;SDS011;65174;48.138;21.002;2023-07-20T13:55:29;2.17;;;1.50;;
76125;SDS011;65174;48.138;21.002;2023-07-20T13:58:35;2.08;;;1.60;;
76125;SDS011;65174;48.138;21.002;2023-07-20T14:01:44;2.33;;;1.60;;
76125;SDS011;65174;48.138;21.002;2023-07-20T14:04:51;2.90;;;1.67;;
76125;SDS011;65174;48.138;21.002;2023-07-20T14:08:16;1.77;;;1.23;;
76125;SDS011;65174;48.138;21.002;2023-07-20T14:12:51;1.88;;;1.63;;
76125;SDS011;65174;48.138;21.002;2023-07-20T14:15:53;2.60;;;1.48;;
76125;SDS011;65174;48.138;21.002;2023-07-20T14:18:58;1.70;;;1.40;;
76125;SDS011;65174;48.138;21.002;2023-07-20T14:22:01;1.80;;;1.70;;
76125;SDS011;65174;48.138;21.002;2023-07-20T14:26:37;1.93;;;1.67;;
76125;SDS011;65174;48.138;21.002;2023-07-20T14:29:39;2.15;;;1.90;;
76125;SDS011;65174;48.138;21.002;2023-07-20T14:32:57;1.77;;;1.60;;
76125;SDS011;65174;48.138;21.002;2023-07-20T14:35:59;3.30;;;1.90;;
76125;SDS011;65174;48.138;21.002;2023-07-20T14:39:05;2.63;;;1.80;;
76125;SDS011;65174;48.138;21.002;2023-07-20T14:42:07;3.30;;;2.07;;
76125;SDS011;65174;48.138;21.002;2023-07-20T14:45:10;2.20;;;1.83;;
76125;SDS011;65174;48.138;21.002;2023-07-20T14:48:12;2.22;;;1.75;;
76125;SDS011;65174;48.138;21.002;2023-07-20T14:51:22;2.67;;;2.20;;
76125;SDS011;65174;48.138;21.002;2023-07-20T14:54:24;2.97;;;1.90;;
76125;SDS011;65174;48.138;21.002;2023-07-20T14:57:26;2.07;;;1.63;;
76125;SDS011;65174;48.138;21.002;2023-07-20T15:00:28;2.20;;;2.00;;
76125;SDS011;65174;48.138;21.002;2023-07-20T15:03:31;2.88;;;2.03;;
76125;SDS011;65174;48.138;21.002;2023-07-20T15:06:34;2.80;;;1.92;;
76125;SDS011;65174;48.138;21.002;2023-07-20T15:09:36;2.63;;;2.40;;
76125;SDS011;65174;48.138;21.002;2023-07-20T15:12:38;3.00;;;2.27;;
76125;SDS011;65174;48.138;21.002;2023-07-20T15:17:13;3.90;;;2.38;;
76125;SDS011;65174;48.138;21.002;2023-07-20T15:21:49;1.75;;;1.50;;
76125;SDS011;65174;48.138;21.002;2023-07-20T15:25:31;2.45;;;2.20;;
76125;SDS011;65174;48.138;21.002;2023-07-20T15:28:33;2.10;;;1.70;;
76125;SDS011;65174;48.138;21.002;2023-07-20T15:31:35;2.20;;;2.00;;
76125;SDS011;65174;48.138;21.002;2023-07-20T15:34:40;1.90;;;1.70;;
76125;SDS011;65174;48.138;21.002;2023-07-20T15:37:42;2.00;;;1.60;;
76125;SDS011;65174;48.138;21.002;2023-07-20T15:40:46;2.10;;;1.90;;
76125;SDS011;65174;48.138;21.002;2023-07-20T15:43:51;3.13;;;1.90;;
76125;SDS011;65174;48.138;21.002;2023-07-20T15:46:54;3.03;;;1.80;;
76125;SDS011;65174;48.138;21.002;2023-07-20T15:49:56;2.30;;;1.60;;
76125;SDS011;65174;48.138;21.002;2023-07-20T15:53:01;2.25;;;1.77;;
76125;SDS011;65174;48.138;21.002;2023-07-20T15:56:03;2.10;;;1.70;;
76125;SDS011;65174;48.138;21.002;2023-07-20T15:59:05;5.77;;;1.77;;
76125;SDS011;65174;48.138;21.002;2023-07-20T16:02:08;1.70;;;1.50;;
76125;SDS011;65174;48.138;21.002;2023-07-20T16:05:13;2.97;;;1.92;;
76125;SDS011;65174;48.138;21.002;2023-07-20T16:11:41;2.95;;;2.20;;
76125;SDS011;65174;48.138;21.002;2023-07-20T16:14:43;2.67;;;1.90;;
76125;SDS011;65174;48.138;21.002;2023-07-20T16:17:48;5.97;;;2.27;;
76125;SDS011;65174;48.138;21.002;2023-07-20T16:20:51;1.95;;;1.75;;
76125;SDS011;65174;48.138;21.002;2023-07-20T16:23:54;3.83;;;1.92;;
76125;SDS011;65174;48.138;21.002;2023-07-20T16:26:56;2.83;;;1.90;;
76125;SDS011;65174;48.138;21.002;2023-07-20T16:29:58;2.45;;;1.95;;
76125;SDS011;65174;48.138;21.002;2023-07-20T16:33:01;3.10;;;1.93;;
76125;SDS011;65174;48.138;21.002;2023-07-20T16:36:07;2.88;;;2.00;;
76125;SDS011;65174;48.138;21.002;2023-07-20T16:39:11;2.80;;;1.60;;
76125;SDS011;65174;48.138;21.002;2023-07-20T16:42:16;3.85;;;2.05;;
76125;SDS011;65174;48.138;21.002;2023-07-20T16:45:41;2.15;;;1.83;;
76125;SDS011;65174;48.138;21.002;2023-07-20T16:48:44;2.50;;;1.50;;
76125;SDS011;65174;48.138;21.002;2023-07-20T16:51:49;1.85;;;1.45;;
76125;SDS011;65174;48.138;21.002;2023-07-20T16:54:52;2.15;;;1.95;;
76125;SDS011;65174;48.138;21.002;2023-07-20T16:57:54;2.00;;;1.75;;
76125;SDS011;65174;48.138;21.002;2023-07-20T17:01:00;3.40;;;2.10;;
76125;SDS011;65174;48.138;21.002;2023-07-20T17:04:03;6.37;;;1.57;;
76125;SDS011;65174;48.138;21.002;2023-07-20T17:07:08;2.33;;;1.70;;
76125;SDS011;65174;48.138;21.002;2023-07-20T17:10:14;2.25;;;1.80;;
76125;SDS011;65174;48.138;21.002;2023-07-20T17:13:18;2.10;;;1.77;;
76125;SDS011;65174;48.138;21.002;2023-07-20T17:16:20;1.77;;;1.58;;
76125;SDS011;65174;48.138;21.002;2023-07-20T17:19:23;2.13;;;1.97;;
76125;SDS011;65174;48.138;21.002;2023-07-20T17:22:33;2.13;;;1.50;;
76125;SDS011;65174;48.138;21.002;2023-07-20T17:25:35;2.28;;;1.80;;
76125;SDS011;65174;48.138;21.002;2023-07-20T17:28:37;3.72;;;1.80;;
76125;SDS011;65174;48.138;21.002;2023-07-20T17:31:43;2.30;;;1.60;;
76125;SDS011;65174;48.138;21.002;2023-07-20T17:34:48;2.37;;;1.70;;
76125;SDS011;65174;48.138;21.002;2023-07-20T17:37:50;2.58;;;2.05;;
76125;SDS011;65174;48.138;21.002;2023-07-20T17:40:56;1.98;;;1.60;;
76125;SDS011;65174;48.138;21.002;2023-07-20T17:45:32;2.03;;;1.65;;
76125;SDS011;65174;48.138;21.002;2023-07-20T17:50:08;3.40;;;2.30;;
76125;SDS011;65174;48.138;21.002;2023-07-20T17:53:13;1.93;;;1.57;;
76125;SDS011;65174;48.138;21.002;2023-07-20T17:56:16;2.25;;;2.05;;
76125;SDS011;65174;48.138;21.002;2023-07-20T17:59:18;4.10;;;1.90;;
76125;SDS011;65174;48.138;21.002;2023-07-20T18:02:20;1.88;;;1.67;;
76125;SDS011;65174;48.138;21.002;2023-07-20T18:05:27;2.00;;;1.80;;
76125;SDS011;65174;48.138;21.002;2023-07-20T18:08:29;3.17;;;1.80;;
76125;SDS011;65174;48.138;21.002;2023-07-20T18:11:30;3.03;;;1.90;;
76125;SDS011;65174;48.138;21.002;2023-07-20T18:14:39;2.78;;;2.08;;
76125;SDS011;65174;48.138;21.002;2023-07-20T18:17:41;4.25;;;2.42;;
76125;SDS011;65174;48.138;21.002;2023-07-20T18:20:43;2.97;;;2.10;;
76125;SDS011;65174;48.138;21.002;2023-07-20T18:23:47;2.60;;;2.40;;
76125;SDS011;65174;48.138;21.002;2023-07-20T18:26:49;2.33;;;2.13;;
76125;SDS011;65174;48.138;21.002;2023-07-20T18:29:54;3.30;;;2.00;;
76125;SDS011;65174;48.138;21.002;2023-07-20T18:33:00;2.40;;;1.70;;
76125;SDS011;65174;48.138;21.002;2023-07-20T18:36:03;2.10;;;1.67;;
76125;SDS011;65174;48.138;21.002;2023-07-20T18:39:05;3.27;;;1.80;;
76125;SDS011;65174;48.138;21.002;2023-07-20T18:42:07;2.78;;;1.95;;
76125;SDS011;65174;48.138;21.002;2023-07-20T18:45:09;2.70;;;2.00;;
76125;SDS011;65174;48.138;21.002;2023-07-20T18:48:11;2.45;;;2.20;;
76125;SDS011;65174;48.138;21.002;2023-07-20T18:51:53;2.30;;;1.80;;
76125;SDS011;65174;48.138;21.002;2023-07-20T18:54:56;3.40;;;1.67;;
76125;SDS011;65174;48.138;21.002;2023-07-20T18:57:59;5.22;;;2.20;;
76125;SDS011;65174;48.138;21.002;2023-07-20T19:01:01;2.70;;;2.40;;
76125;SDS011;65174;48.138;21.002;2023-07-20T19:04:04;6.05;;;2.90;;
76125;SDS011;65174;48.138;21.002;2023-07-20T19:07:06;4.25;;;2.58;;
76125;SDS011;65174;48.138;21.002;2023-07-20T19:10:08;4.70;;;2.97;;
76125;SDS011;65174;48.138;21.002;2023-07-20T19:13:14;6.82;;;3.30;;
76125;SDS011;65174;48.138;21.002;2023-07-20T19:16:16;5.30;;;3.15;;
76125;SDS011;65174;48.138;21.002;2023-07-20T19:19:19;5.10;;;2.90;;
76125;SDS011;65174;48.138;21.002;2023-07-20T19:22:22;3.85;;;2.92;;
76125;SDS011;65174;48.138;21.002;2023-07-20T19:25:24;5.73;;;2.60;;
76125;SDS011;65174;48.138;21.002;2023-07-20T19:28:26;5.78;;;2.70;;
76125;SDS011;65174;48.138;21.002;2023-07-20T19:31:29;7.35;;;3.17;;
76125;SDS011;65174;48.138;21.002;2023-07-20T19:34:31;8.85;;;3.47;;
76125;SDS011;65174;48.138;21.002;2023-07-20T19:37:33;8.35;;;3.58;;
76125;SDS011;65174;48.138;21.002;2023-07-20T19:40:36;9.20;;;3.83;;
76125;SDS011;65174;48.138;21.002;2023-07-20T19:43:38;9.10;;;3.65;;
76125;SDS011;65174;48.138;21.002;2023-07-20T19:46:58;7.68;;;3.60;;
76125;SDS011;65174;48.138;21.002;2023-07-20T19:50:01;4.32;;;2.70;;
76125;SDS011;65174;48.138;21.002;2023-07-20T19:53:08;8.00;;;2.97;;
76125;SDS011;65174;48.138;21.002;2023-07-20T19:56:13;6.50;;;2.60;;
76125;SDS011;65174;48.138;21.002;2023-07-20T19:59:15;8.25;;;4.50;;
76125;SDS011;65174;48.138;21.002;2023-07-20T20:02:20;5.35;;;3.50;;
76125;SDS011;65174;48.138;21.002;2023-07-20T20:05:22;8.63;;;3.72;;
76125;SDS011;65174;48.138;21.002;2023-07-20T20:08:27;5.63;;;3.20;;
76125;SDS011;65174;48.138;21.002;2023-07-20T20:11:31;5.97;;;3.10;;
76125;SDS011;65174;48.138;21.002;2023-07-20T20:14:36;7.65;;;3.50;;
76125;SDS011;65174;48.138;21.002;2023-07-20T20:17:39;9.93;;;3.95;;
76125;SDS011;65174;48.138;21.002;2023-07-20T20:20:44;6.47;;;3.22;;
76125;SDS011;65174;48.138;21.002;2023-07-20T20:23:47;4.68;;;2.85;;
76125;SDS011;65174;48.138;21.002;2023-07-20T20:26:50;6.47;;;3.20;;
76125;SDS011;65174;48.138;21.002;2023-07-20T20:30:08;5.80;;;2.92;;
76125;SDS011;65174;48.138;21.002;2023-07-20T20:33:11;5.47;;;2.65;;
76125;SDS011;65174;48.138;21.002;2023-07-20T20:36:13;5.05;;;2.60;;
76125;SDS011;65174;48.138;21.002;2023-07-20T20:39:17;5.53;;;2.85;;
76125;SDS011;65174;48.138;21.002;2023-07-20T20:42:19;5.10;;;2.43;;
76125;SDS011;65174;48.138;21.002;2023-07-20T20:45:22;3.42;;;2.50;;
76125;SDS011;65174;48.138;21.002;2023-07-20T20:48:23;2.97;;;2.13;;
76125;SDS011;65174;48.138;21.002;2023-07-20T20:51:28;5.05;;;2.15;;
76125;SDS011;65174;48.138;21.002;2023-07-20T20:54:29;3.97;;;2.27;;
76125;SDS011;65174;48.138;21.002;2023-07-20T20:57:32;2.83;;;1.83;;
76125;SDS011;65174;48.138;21.002;2023-07-20T21:00:43;2.97;;;2.00;;
76125;SDS011;65174;48.138;21.002;2023-07-20T21:03:46;2.63;;;2.05;;
76125;SDS011;65174;48.138;21.002;2023-07-20T21:07:37;2.83;;;2.00;;
76125;SDS011;65174;48.138;21.002;2023-07-20T21:10:42;4.55;;;2.25;;
76125;SDS011;65174;48.138;21.002;2023-07-20T21:13:45;2.83;;;2.23;;
76125;SDS011;65174;48.138;21.002;2023-07-20T21:16:47;2.22;;;1.90;;
76125;SDS011;65174;48.138;21.002;2023-07-20T21:19:49;3.13;;;1.63;;
76125;SDS011;65174;48.138;21.002;2023-07-20T21:22:51;2.45;;;1.95;;
76125;SDS011;65174;48.138;21.002;2023-07-20T21:25:54;3.05;;;2.20;;
76125;SDS011;65174;48.138;21.002;2023-07-20T21:29:28;2.60;;;2.00;;
76125;SDS011;65174;48.138;21.002;2023-07-20T21:32:30;2.40;;;2.20;;
76125;SDS011;65174;48.138;21.002;2023-07-20T21:35:36;2.40;;;1.70;;
76125;SDS011;65174;48.138;21.002;2023-07-20T21:39:09;2.45;;;2.05;;
76125;SDS011;65174;48.138;21.002;2023-07-20T21:42:11;2.08;;;1.80;;
76125;SDS011;65174;48.138;21.002;2023-07-20T21:45:19;2.20;;;1.87;;
76125;SDS011;65174;48.138;21.002;2023-07-20T21:48:23;1.65;;;1.55;;
76125;SDS011;65174;48.138;21.002;2023-07-20T21:51:26;2.63;;;2.28;;
76125;SDS011;65174;48.138;21.002;2023-07-20T21:55:27;2.20;;;1.83;;
76125;SDS011;65174;48.138;21.002;2023-07-20T21:59:28;3.38;;;2.15;;
76125;SDS011;65174;48.138;21.002;2023-07-20T22:03:28;3.93;;;2.53;;
76125;SDS011;65174;48.138;21.002;2023-07-20T22:07:30;3.75;;;2.38;;
76125;SDS011;65174;48.138;21.002;2023-07-20T22:11:30;2.42;;;2.13;;
76125;SDS011;65174;48.138;21.002;2023-07-20T22:15:31;2.83;;;1.80;;
76125;SDS011;65174;48.138;21.002;2023-07-20T22:19:34;2.53;;;1.95;;
76125;SDS011;65174;48.138;21.002;2023-07-20T22:23:36;4.17;;;2.00;;
76125;SDS011;65174;48.138;21.002;2023-07-20T22:27:37;2.25;;;1.90;;
76125;SDS011;65174;48.138;21.002;2023-07-20T22:31:37;6.45;;;2.60;;
76125;SDS011;65174;48.138;21.002;2023-07-20T22:35:38;3.03;;;2.53;;
76125;SDS011;65174;48.138;21.002;2023-07-20T22:39:39;2.05;;;1.85;;
76125;SDS011;65174;48.138;21.002;2023-07-20T22:43:40;2.90;;;2.03;;
76125;SDS011;65174;48.138;21.002;2023-07-20T22:47:40;1.90;;;1.58;;
76125;SDS011;65174;48.138;21.002;2023-07-20T22:51:41;2.38;;;1.90;;
76125;SDS011;65174;48.138;21.002;2023-07-20T22:55:44;7.13;;;1.70;;
76125;SDS011;65174;48.138;21.002;2023-07-20T22:59:46;2.63;;;1.75;;
76125;SDS011;65174;48.138;21.002;2023-07-20T23:03:47;1.90;;;1.80;;
76125;SDS011;65174;48.138;21.002;2023-07-20T23:07:48;2.10;;;1.65;;
76125;SDS011;65174;48.138;21.002;2023-07-20T23:11:49;2.33;;;2.13;;
76125;SDS011;65174;48.138;21.002;2023-07-20T23:15:51;4.43;;;1.95;;
76125;SDS011;65174;48.138;21.002;2023-07-20T23:19:51;2.25;;;1.98;;
76125;SDS011;65174;48.138;21.002;2023-07-20T23:23:52;2.80;;;1.90;;
76125;SDS011;65174;48.138;21.002;2023-07-20T23:26:54;2.25;;;1.98;;
76125;SDS011;65174;48.138;21.002;2023-07-20T23:29:56;2.58;;;1.80;;
76125;SDS011;65174;48.138;21.002;2023-07-20T23:32:59;2.67;;;2.47;;
76125;SDS011;65174;48.138;21.002;2023-07-20T23:36:01;2.28;;;1.70;;
76125;SDS011;65174;48.138;21.002;2023-07-20T23:39:09;2.00;;;1.67;;
76125;SDS011;65174;48.138;21.002;2023-07-20T23:42:11;3.42;;;1.83;;
76125;SDS011;65174;48.138;21.002;2023-07-20T23:45:15;2.60;;;1.63;;
76125;SDS011;65174;48.138;21.002;2023-07-20T23:48:17;1.60;;;1.48;;
76125;SDS011;65174;48.138;21.002;2023-07-20T23:51:19;1.67;;;1.55;;
76125;SDS011;65174;48.138;21.002;2023-07-20T23:54:22;1.60;;;1.50;;
76125;SDS011;65174;48.138;21.002;2023-07-20T23:57:25;2.03;;;1.70;;
